sensor_id;sensor_type;location;lat;lon;timestamp;P1;durP1;ratioP1;P2;durP2;ratioP2
33573;SDS011;20085;50.832;4.392;2022-08-23T00:01:31;14.10;;;6.10;;
33573;SDS011;20085;50.832;4.392;2022-08-23T00:04:01;17.70;;;5.95;;
33573;SDS011;20085;50.832;4.392;2022-08-23T00:06:30;14.25;;;5.53;;
33573;SDS011;20085;50.832;4.392;2022-08-23T00:08:56;16.05;;;5.30;;
33573;SDS011;20085;50.832;4.392;2022-08-23T00:11:24;17.98;;;5.40;;
33573;SDS011;20085;50.832;4.392;2022-08-23T00:13:59;16.40;;;5.75;;
33573;SDS011;20085;50.832;4.392;2022-08-23T00:16:27;12.07;;;5.53;;
33573;SDS011;20085;50.832;4.392;2022-08-23T00:18:52;15.43;;;5.25;;
33573;SDS011;20085;50.832;4.392;2022-08-23T00:21:18;18.10;;;6.13;;
33573;SDS011;20085;50.832;4.392;2022-08-23T00:23:45;14.98;;;5.50;;
33573;SDS011;20085;50.832;4.392;2022-08-23T00:26:11;14.30;;;5.13;;
33573;SDS011;20085;50.832;4.392;2022-08-23T00:28:36;10.57;;;4.60;;
33573;SDS011;20085;50.832;4.392;2022-08-23T00:31:02;17.55;;;5.10;;
33573;SDS011;20085;50.832;4.392;2022-08-23T00:33:28;9.68;;;4.90;;
33573;SDS011;20085;50.832;4.392;2022-08-23T00:35:53;14.20;;;5.13;;
33573;SDS011;20085;50.832;4.392;2022-08-23T00:38:19;12.45;;;5.00;;
33573;SDS011;20085;50.832;4.392;2022-08-23T00:40:46;10.85;;;5.10;;
33573;SDS011;20085;50.832;4.392;2022-08-23T00:43:15;19.48;;;5.97;;
33573;SDS011;20085;50.832;4.392;2022-08-23T00:46:08;13.13;;;5.30;;
33573;SDS011;20085;50.832;4.392;2022-08-23T00:49:00;17.08;;;5.55;;
33573;SDS011;20085;50.832;4.392;2022-08-23T00:51:35;17.52;;;5.93;;
33573;SDS011;20085;50.832;4.392;2022-08-23T00:54:09;12.93;;;5.03;;
33573;SDS011;20085;50.832;4.392;2022-08-23T00:56:35;13.38;;;4.90;;
33573;SDS011;20085;50.832;4.392;2022-08-23T00:59:03;16.00;;;5.68;;
33573;SDS011;20085;50.832;4.392;2022-08-23T01:01:29;18.05;;;4.68;;
33573;SDS011;20085;50.832;4.392;2022-08-23T01:03:56;15.57;;;5.82;;
33573;SDS011;20085;50.832;4.392;2022-08-23T01:09:17;12.05;;;5.05;;
33573;SDS011;20085;50.832;4.392;2022-08-23T01:11:48;17.50;;;5.93;;
33573;SDS011;20085;50.832;4.392;2022-08-23T01:14:43;13.02;;;5.82;;
33573;SDS011;20085;50.832;4.392;2022-08-23T01:17:17;17.98;;;6.05;;
33573;SDS011;20085;50.832;4.392;2022-08-23T01:19:52;14.45;;;5.60;;
33573;SDS011;20085;50.832;4.392;2022-08-23T01:25:06;16.25;;;5.40;;
33573;SDS011;20085;50.832;4.392;2022-08-23T01:27:35;17.00;;;6.10;;
33573;SDS011;20085;50.832;4.392;2022-08-23T01:30:03;13.25;;;5.72;;
33573;SDS011;20085;50.832;4.392;2022-08-23T01:32:32;15.73;;;6.18;;
33573;SDS011;20085;50.832;4.392;2022-08-23T01:35:04;15.10;;;5.78;;
33573;SDS011;20085;50.832;4.392;2022-08-23T01:37:30;15.43;;;5.45;;
33573;SDS011;20085;50.832;4.392;2022-08-23T01:39:57;16.45;;;5.60;;
33573;SDS011;20085;50.832;4.392;2022-08-23T01:42:22;12.10;;;5.43;;
33573;SDS011;20085;50.832;4.392;2022-08-23T01:44:48;13.02;;;5.90;;
33573;SDS011;20085;50.832;4.392;2022-08-23T01:47:14;16.33;;;5.68;;
33573;SDS011;20085;50.832;4.392;2022-08-23T01:49:39;14.60;;;5.97;;
33573;SDS011;20085;50.832;4.392;2022-08-23T01:52:05;13.70;;;5.68;;
33573;SDS011;20085;50.832;4.392;2022-08-23T01:54:31;14.27;;;5.28;;
33573;SDS011;20085;50.832;4.392;2022-08-23T01:56:56;14.20;;;5.80;;
33573;SDS011;20085;50.832;4.392;2022-08-23T01:59:22;14.30;;;5.68;;
33573;SDS011;20085;50.832;4.392;2022-08-23T02:01:48;13.13;;;5.85;;
33573;SDS011;20085;50.832;4.392;2022-08-23T02:04:14;14.07;;;5.82;;
33573;SDS011;20085;50.832;4.392;2022-08-23T02:06:39;12.38;;;5.75;;
33573;SDS011;20085;50.832;4.392;2022-08-23T02:09:05;14.93;;;5.80;;
33573;SDS011;20085;50.832;4.392;2022-08-23T02:11:35;13.32;;;5.88;;
33573;SDS011;20085;50.832;4.392;2022-08-23T02:14:06;18.42;;;6.53;;
33573;SDS011;20085;50.832;4.392;2022-08-23T02:16:37;14.88;;;6.63;;
33573;SDS011;20085;50.832;4.392;2022-08-23T02:19:07;18.92;;;6.50;;
33573;SDS011;20085;50.832;4.392;2022-08-23T02:21:34;16.25;;;6.13;;
33573;SDS011;20085;50.832;4.392;2022-08-23T02:24:05;19.92;;;6.70;;
33573;SDS011;20085;50.832;4.392;2022-08-23T02:26:43;14.88;;;6.30;;
33573;SDS011;20085;50.832;4.392;2022-08-23T02:29:11;17.73;;;6.68;;
33573;SDS011;20085;50.832;4.392;2022-08-23T02:31:40;11.68;;;6.40;;
33573;SDS011;20085;50.832;4.392;2022-08-23T02:34:08;21.45;;;7.18;;
33573;SDS011;20085;50.832;4.392;2022-08-23T02:36:35;17.73;;;6.80;;
33573;SDS011;20085;50.832;4.392;2022-08-23T02:39:02;13.98;;;6.75;;
33573;SDS011;20085;50.832;4.392;2022-08-23T02:41:29;12.93;;;6.68;;
33573;SDS011;20085;50.832;4.392;2022-08-23T02:43:55;19.25;;;6.90;;
33573;SDS011;20085;50.832;4.392;2022-08-23T02:46:21;17.75;;;6.93;;
33573;SDS011;20085;50.832;4.392;2022-08-23T02:48:48;14.02;;;6.65;;
33573;SDS011;20085;50.832;4.392;2022-08-23T02:51:14;17.83;;;7.80;;
33573;SDS011;20085;50.832;4.392;2022-08-23T02:53:41;15.32;;;7.13;;
33573;SDS011;20085;50.832;4.392;2022-08-23T02:56:07;16.23;;;7.13;;
33573;SDS011;20085;50.832;4.392;2022-08-23T02:58:33;17.13;;;7.30;;
33573;SDS011;20085;50.832;4.392;2022-08-23T03:00:58;17.30;;;7.40;;
33573;SDS011;20085;50.832;4.392;2022-08-23T03:03:25;20.30;;;7.40;;
33573;SDS011;20085;50.832;4.392;2022-08-23T03:05:50;17.85;;;7.47;;
33573;SDS011;20085;50.832;4.392;2022-08-23T03:08:17;16.73;;;7.60;;
33573;SDS011;20085;50.832;4.392;2022-08-23T03:10:44;16.90;;;7.15;;
33573;SDS011;20085;50.832;4.392;2022-08-23T03:13:11;18.02;;;8.00;;
33573;SDS011;20085;50.832;4.392;2022-08-23T03:15:37;20.48;;;7.38;;
33573;SDS011;20085;50.832;4.392;2022-08-23T03:18:03;13.30;;;6.50;;
33573;SDS011;20085;50.832;4.392;2022-08-23T03:20:29;17.52;;;7.03;;
33573;SDS011;20085;50.832;4.392;2022-08-23T03:22:55;16.70;;;6.72;;
33573;SDS011;20085;50.832;4.392;2022-08-23T03:25:21;18.10;;;6.88;;
33573;SDS011;20085;50.832;4.392;2022-08-23T03:27:47;15.88;;;6.38;;
33573;SDS011;20085;50.832;4.392;2022-08-23T03:30:13;16.05;;;6.80;;
33573;SDS011;20085;50.832;4.392;2022-08-23T03:32:38;19.33;;;7.03;;
33573;SDS011;20085;50.832;4.392;2022-08-23T03:35:04;16.45;;;6.90;;
33573;SDS011;20085;50.832;4.392;2022-08-23T03:37:31;17.23;;;6.80;;
33573;SDS011;20085;50.832;4.392;2022-08-23T03:39:56;16.02;;;6.70;;
33573;SDS011;20085;50.832;4.392;2022-08-23T03:42:22;20.25;;;7.88;;
33573;SDS011;20085;50.832;4.392;2022-08-23T03:44:49;17.50;;;7.47;;
33573;SDS011;20085;50.832;4.392;2022-08-23T03:47:14;15.98;;;7.53;;
33573;SDS011;20085;50.832;4.392;2022-08-23T03:49:40;20.80;;;8.07;;
33573;SDS011;20085;50.832;4.392;2022-08-23T03:52:06;15.35;;;6.97;;
33573;SDS011;20085;50.832;4.392;2022-08-23T03:54:32;17.98;;;7.38;;
33573;SDS011;20085;50.832;4.392;2022-08-23T03:56:59;17.20;;;6.95;;
33573;SDS011;20085;50.832;4.392;2022-08-23T03:59:28;19.23;;;7.38;;
33573;SDS011;20085;50.832;4.392;2022-08-23T04:01:55;16.70;;;7.00;;
33573;SDS011;20085;50.832;4.392;2022-08-23T04:04:21;21.58;;;7.30;;
33573;SDS011;20085;50.832;4.392;2022-08-23T04:06:46;16.50;;;7.80;;
33573;SDS011;20085;50.832;4.392;2022-08-23T04:09:12;18.90;;;8.10;;
33573;SDS011;20085;50.832;4.392;2022-08-23T04:11:40;21.95;;;7.95;;
33573;SDS011;20085;50.832;4.392;2022-08-23T04:14:06;18.55;;;7.47;;
33573;SDS011;20085;50.832;4.392;2022-08-23T04:16:32;16.25;;;7.75;;
33573;SDS011;20085;50.832;4.392;2022-08-23T04:19:08;20.90;;;8.43;;
33573;SDS011;20085;50.832;4.392;2022-08-23T04:21:40;20.02;;;7.85;;
33573;SDS011;20085;50.832;4.392;2022-08-23T04:24:08;19.30;;;8.18;;
33573;SDS011;20085;50.832;4.392;2022-08-23T04:26:34;15.10;;;7.00;;
33573;SDS011;20085;50.832;4.392;2022-08-23T04:28:59;17.80;;;8.35;;
33573;SDS011;20085;50.832;4.392;2022-08-23T04:31:25;16.15;;;7.90;;
33573;SDS011;20085;50.832;4.392;2022-08-23T04:33:52;21.15;;;8.07;;
33573;SDS011;20085;50.832;4.392;2022-08-23T04:36:19;17.02;;;8.95;;
33573;SDS011;20085;50.832;4.392;2022-08-23T04:38:45;18.73;;;9.57;;
33573;SDS011;20085;50.832;4.392;2022-08-23T04:41:11;22.30;;;10.05;;
33573;SDS011;20085;50.832;4.392;2022-08-23T04:43:55;22.77;;;10.55;;
33573;SDS011;20085;50.832;4.392;2022-08-23T04:46:21;25.75;;;10.38;;
33573;SDS011;20085;50.832;4.392;2022-08-23T04:48:46;23.55;;;10.25;;
33573;SDS011;20085;50.832;4.392;2022-08-23T04:51:12;26.25;;;11.20;;
33573;SDS011;20085;50.832;4.392;2022-08-23T04:53:39;26.85;;;10.23;;
33573;SDS011;20085;50.832;4.392;2022-08-23T04:56:05;24.30;;;10.18;;
33573;SDS011;20085;50.832;4.392;2022-08-23T04:58:32;23.38;;;10.35;;
33573;SDS011;20085;50.832;4.392;2022-08-23T05:01:00;31.45;;;10.90;;
33573;SDS011;20085;50.832;4.392;2022-08-23T05:03:28;27.27;;;10.43;;
33573;SDS011;20085;50.832;4.392;2022-08-23T05:05:55;21.85;;;8.82;;
33573;SDS011;20085;50.832;4.392;2022-08-23T05:08:22;24.83;;;9.50;;
33573;SDS011;20085;50.832;4.392;2022-08-23T05:10:48;17.73;;;9.25;;
33573;SDS011;20085;50.832;4.392;2022-08-23T05:13:14;26.10;;;10.05;;
33573;SDS011;20085;50.832;4.392;2022-08-23T05:15:39;19.60;;;9.23;;
33573;SDS011;20085;50.832;4.392;2022-08-23T05:18:05;22.80;;;9.68;;
33573;SDS011;20085;50.832;4.392;2022-08-23T05:20:31;22.05;;;9.70;;
33573;SDS011;20085;50.832;4.392;2022-08-23T05:22:58;23.85;;;9.93;;
33573;SDS011;20085;50.832;4.392;2022-08-23T05:25:25;21.23;;;9.82;;
33573;SDS011;20085;50.832;4.392;2022-08-23T05:28:11;21.33;;;10.35;;
33573;SDS011;20085;50.832;4.392;2022-08-23T05:30:37;25.13;;;9.52;;
33573;SDS011;20085;50.832;4.392;2022-08-23T05:33:02;26.83;;;9.80;;
33573;SDS011;20085;50.832;4.392;2022-08-23T05:35:29;26.77;;;8.98;;
33573;SDS011;20085;50.832;4.392;2022-08-23T05:37:55;22.98;;;9.13;;
33573;SDS011;20085;50.832;4.392;2022-08-23T05:40:23;20.90;;;8.45;;
33573;SDS011;20085;50.832;4.392;2022-08-23T05:42:50;19.30;;;8.73;;
33573;SDS011;20085;50.832;4.392;2022-08-23T05:45:16;19.02;;;8.27;;
33573;SDS011;20085;50.832;4.392;2022-08-23T05:47:41;18.33;;;7.38;;
33573;SDS011;20085;50.832;4.392;2022-08-23T05:50:07;21.92;;;7.55;;
33573;SDS011;20085;50.832;4.392;2022-08-23T05:52:34;21.52;;;7.90;;
33573;SDS011;20085;50.832;4.392;2022-08-23T05:55:00;17.15;;;7.40;;
33573;SDS011;20085;50.832;4.392;2022-08-23T05:57:26;22.90;;;8.18;;
33573;SDS011;20085;50.832;4.392;2022-08-23T05:59:52;18.40;;;7.15;;
33573;SDS011;20085;50.832;4.392;2022-08-23T06:02:18;20.00;;;7.63;;
33573;SDS011;20085;50.832;4.392;2022-08-23T06:04:43;19.92;;;6.88;;
33573;SDS011;20085;50.832;4.392;2022-08-23T06:07:09;25.70;;;7.10;;
33573;SDS011;20085;50.832;4.392;2022-08-23T06:09:35;15.57;;;5.93;;
33573;SDS011;20085;50.832;4.392;2022-08-23T06:12:01;25.85;;;6.75;;
33573;SDS011;20085;50.832;4.392;2022-08-23T06:14:27;16.60;;;6.47;;
33573;SDS011;20085;50.832;4.392;2022-08-23T06:16:53;27.77;;;7.57;;
33573;SDS011;20085;50.832;4.392;2022-08-23T06:19:19;20.98;;;6.72;;
33573;SDS011;20085;50.832;4.392;2022-08-23T06:21:44;20.55;;;7.00;;
33573;SDS011;20085;50.832;4.392;2022-08-23T06:24:11;19.70;;;6.35;;
33573;SDS011;20085;50.832;4.392;2022-08-23T06:26:38;18.88;;;6.45;;
33573;SDS011;20085;50.832;4.392;2022-08-23T06:29:07;18.25;;;5.78;;
33573;SDS011;20085;50.832;4.392;2022-08-23T06:31:35;15.85;;;6.00;;
33573;SDS011;20085;50.832;4.392;2022-08-23T06:34:14;10.27;;;4.80;;
33573;SDS011;20085;50.832;4.392;2022-08-23T06:36:41;13.77;;;4.80;;
33573;SDS011;20085;50.832;4.392;2022-08-23T06:39:08;13.55;;;5.30;;
33573;SDS011;20085;50.832;4.392;2022-08-23T06:41:34;13.20;;;5.13;;
33573;SDS011;20085;50.832;4.392;2022-08-23T06:44:00;16.77;;;5.53;;
33573;SDS011;20085;50.832;4.392;2022-08-23T06:46:27;15.50;;;5.70;;
33573;SDS011;20085;50.832;4.392;2022-08-23T06:48:53;14.88;;;5.93;;
33573;SDS011;20085;50.832;4.392;2022-08-23T06:51:24;12.98;;;6.03;;
33573;SDS011;20085;50.832;4.392;2022-08-23T06:53:53;13.90;;;5.95;;
33573;SDS011;20085;50.832;4.392;2022-08-23T06:56:21;20.30;;;6.10;;
33573;SDS011;20085;50.832;4.392;2022-08-23T06:58:48;13.88;;;5.20;;
33573;SDS011;20085;50.832;4.392;2022-08-23T07:01:21;17.48;;;5.43;;
33573;SDS011;20085;50.832;4.392;2022-08-23T07:04:04;15.85;;;4.88;;
33573;SDS011;20085;50.832;4.392;2022-08-23T07:06:31;12.32;;;5.10;;
33573;SDS011;20085;50.832;4.392;2022-08-23T07:08:58;14.70;;;5.10;;
33573;SDS011;20085;50.832;4.392;2022-08-23T07:11:24;11.43;;;4.90;;
33573;SDS011;20085;50.832;4.392;2022-08-23T07:13:50;12.90;;;5.03;;
33573;SDS011;20085;50.832;4.392;2022-08-23T07:16:20;14.55;;;5.35;;
33573;SDS011;20085;50.832;4.392;2022-08-23T07:18:45;14.15;;;4.75;;
33573;SDS011;20085;50.832;4.392;2022-08-23T07:21:13;16.52;;;5.00;;
33573;SDS011;20085;50.832;4.392;2022-08-23T07:23:40;12.45;;;4.40;;
33573;SDS011;20085;50.832;4.392;2022-08-23T07:26:10;14.68;;;4.43;;
33573;SDS011;20085;50.832;4.392;2022-08-23T07:28:38;15.73;;;4.10;;
33573;SDS011;20085;50.832;4.392;2022-08-23T07:31:09;14.15;;;4.70;;
33573;SDS011;20085;50.832;4.392;2022-08-23T07:33:41;15.80;;;6.05;;
33573;SDS011;20085;50.832;4.392;2022-08-23T07:36:08;12.00;;;3.83;;
33573;SDS011;20085;50.832;4.392;2022-08-23T07:38:36;9.10;;;3.20;;
33573;SDS011;20085;50.832;4.392;2022-08-23T07:41:02;10.10;;;3.40;;
33573;SDS011;20085;50.832;4.392;2022-08-23T07:43:30;9.93;;;3.10;;
33573;SDS011;20085;50.832;4.392;2022-08-23T07:45:57;9.20;;;3.10;;
33573;SDS011;20085;50.832;4.392;2022-08-23T07:48:22;10.80;;;3.63;;
33573;SDS011;20085;50.832;4.392;2022-08-23T07:50:57;9.40;;;2.83;;
33573;SDS011;20085;50.832;4.392;2022-08-23T07:53:24;10.00;;;3.20;;
33573;SDS011;20085;50.832;4.392;2022-08-23T07:55:50;16.02;;;3.00;;
33573;SDS011;20085;50.832;4.392;2022-08-23T07:58:16;12.02;;;3.10;;
33573;SDS011;20085;50.832;4.392;2022-08-23T08:00:42;10.80;;;3.70;;
33573;SDS011;20085;50.832;4.392;2022-08-23T08:03:09;11.93;;;2.97;;
33573;SDS011;20085;50.832;4.392;2022-08-23T08:05:36;8.38;;;2.85;;
33573;SDS011;20085;50.832;4.392;2022-08-23T08:08:02;11.93;;;2.78;;
33573;SDS011;20085;50.832;4.392;2022-08-23T08:10:29;13.95;;;3.03;;
33573;SDS011;20085;50.832;4.392;2022-08-23T08:12:55;9.02;;;2.80;;
33573;SDS011;20085;50.832;4.392;2022-08-23T08:15:21;18.95;;;3.15;;
33573;SDS011;20085;50.832;4.392;2022-08-23T08:17:48;8.57;;;2.90;;
33573;SDS011;20085;50.832;4.392;2022-08-23T08:20:15;8.98;;;2.97;;
33573;SDS011;20085;50.832;4.392;2022-08-23T08:22:42;10.40;;;2.85;;
33573;SDS011;20085;50.832;4.392;2022-08-23T08:25:08;8.07;;;2.65;;
33573;SDS011;20085;50.832;4.392;2022-08-23T08:27:35;13.57;;;3.40;;
33573;SDS011;20085;50.832;4.392;2022-08-23T08:30:00;17.83;;;3.67;;
33573;SDS011;20085;50.832;4.392;2022-08-23T08:32:26;11.43;;;3.20;;
33573;SDS011;20085;50.832;4.392;2022-08-23T08:34:52;8.95;;;3.10;;
33573;SDS011;20085;50.832;4.392;2022-08-23T08:37:17;20.27;;;3.75;;
33573;SDS011;20085;50.832;4.392;2022-08-23T08:39:43;12.15;;;3.00;;
33573;SDS011;20085;50.832;4.392;2022-08-23T08:44:57;13.52;;;3.33;;
33573;SDS011;20085;50.832;4.392;2022-08-23T08:50:25;16.88;;;3.63;;
33573;SDS011;20085;50.832;4.392;2022-08-23T08:53:01;11.27;;;3.00;;
33573;SDS011;20085;50.832;4.392;2022-08-23T08:55:29;16.95;;;3.70;;
33573;SDS011;20085;50.832;4.392;2022-08-23T08:58:05;11.30;;;3.17;;
33573;SDS011;20085;50.832;4.392;2022-08-23T09:00:36;13.85;;;3.40;;
33573;SDS011;20085;50.832;4.392;2022-08-23T09:03:10;10.18;;;2.95;;
33573;SDS011;20085;50.832;4.392;2022-08-23T09:05:38;11.43;;;3.28;;
33573;SDS011;20085;50.832;4.392;2022-08-23T09:11:06;12.85;;;3.28;;
33573;SDS011;20085;50.832;4.392;2022-08-23T09:14:10;14.97;;;3.20;;
33573;SDS011;20085;50.832;4.392;2022-08-23T09:16:52;11.45;;;4.22;;
33573;SDS011;20085;50.832;4.392;2022-08-23T09:19:25;12.88;;;3.00;;
33573;SDS011;20085;50.832;4.392;2022-08-23T09:21:58;11.35;;;3.42;;
33573;SDS011;20085;50.832;4.392;2022-08-23T09:24:37;11.05;;;3.17;;
33573;SDS011;20085;50.832;4.392;2022-08-23T09:27:05;9.05;;;3.25;;
33573;SDS011;20085;50.832;4.392;2022-08-23T09:29:34;17.15;;;4.00;;
33573;SDS011;20085;50.832;4.392;2022-08-23T09:32:04;13.48;;;4.10;;
33573;SDS011;20085;50.832;4.392;2022-08-23T09:34:49;13.23;;;3.83;;
33573;SDS011;20085;50.832;4.392;2022-08-23T09:39:51;12.23;;;3.75;;
33573;SDS011;20085;50.832;4.392;2022-08-23T09:42:37;14.65;;;4.65;;
33573;SDS011;20085;50.832;4.392;2022-08-23T09:45:25;13.82;;;4.40;;
33573;SDS011;20085;50.832;4.392;2022-08-23T09:47:52;15.63;;;5.13;;
33573;SDS011;20085;50.832;4.392;2022-08-23T09:50:28;21.08;;;5.68;;
33573;SDS011;20085;50.832;4.392;2022-08-23T09:53:09;17.48;;;5.00;;
33573;SDS011;20085;50.832;4.392;2022-08-23T09:58:14;14.55;;;5.70;;
33573;SDS011;20085;50.832;4.392;2022-08-23T10:03:37;10.55;;;4.30;;
33573;SDS011;20085;50.832;4.392;2022-08-23T10:06:04;11.68;;;4.70;;
33573;SDS011;20085;50.832;4.392;2022-08-23T10:08:33;17.33;;;4.80;;
33573;SDS011;20085;50.832;4.392;2022-08-23T10:13:36;10.43;;;3.72;;
33573;SDS011;20085;50.832;4.392;2022-08-23T10:16:10;10.52;;;3.80;;
33573;SDS011;20085;50.832;4.392;2022-08-23T10:21:32;10.55;;;4.72;;
33573;SDS011;20085;50.832;4.392;2022-08-23T10:30:02;10.23;;;2.60;;
33573;SDS011;20085;50.832;4.392;2022-08-23T10:33:07;9.75;;;2.45;;
33573;SDS011;20085;50.832;4.392;2022-08-23T10:35:42;9.30;;;2.30;;
33573;SDS011;20085;50.832;4.392;2022-08-23T10:38:35;24.90;;;18.27;;
33573;SDS011;20085;50.832;4.392;2022-08-23T10:46:11;7.28;;;1.80;;
33573;SDS011;20085;50.832;4.392;2022-08-23T10:48:58;7.72;;;1.80;;
33573;SDS011;20085;50.832;4.392;2022-08-23T10:51:25;6.15;;;1.90;;
33573;SDS011;20085;50.832;4.392;2022-08-23T10:53:56;7.25;;;1.88;;
33573;SDS011;20085;50.832;4.392;2022-08-23T10:56:26;8.32;;;2.45;;
33573;SDS011;20085;50.832;4.392;2022-08-23T11:01:24;10.57;;;2.13;;
33573;SDS011;20085;50.832;4.392;2022-08-23T11:04:04;6.57;;;1.95;;
33573;SDS011;20085;50.832;4.392;2022-08-23T11:06:45;4.57;;;1.75;;
33573;SDS011;20085;50.832;4.392;2022-08-23T11:11:43;7.53;;;1.65;;
33573;SDS011;20085;50.832;4.392;2022-08-23T11:17:04;6.15;;;1.50;;
33573;SDS011;20085;50.832;4.392;2022-08-23T11:19:49;4.03;;;1.10;;
33573;SDS011;20085;50.832;4.392;2022-08-23T11:25:00;6.43;;;1.70;;
33573;SDS011;20085;50.832;4.392;2022-08-23T11:27:36;4.72;;;1.50;;
33573;SDS011;20085;50.832;4.392;2022-08-23T11:32:56;4.93;;;1.30;;
33573;SDS011;20085;50.832;4.392;2022-08-23T11:35:37;5.57;;;1.33;;
33573;SDS011;20085;50.832;4.392;2022-08-23T11:38:09;8.38;;;1.40;;
33573;SDS011;20085;50.832;4.392;2022-08-23T11:40:55;2.67;;;1.17;;
33573;SDS011;20085;50.832;4.392;2022-08-23T11:43:25;4.75;;;1.35;;
33573;SDS011;20085;50.832;4.392;2022-08-23T11:45:54;4.63;;;1.40;;
33573;SDS011;20085;50.832;4.392;2022-08-23T11:48:44;4.30;;;1.10;;
33573;SDS011;20085;50.832;4.392;2022-08-23T11:57:17;4.05;;;1.27;;
33573;SDS011;20085;50.832;4.392;2022-08-23T12:05:21;4.88;;;1.40;;
33573;SDS011;20085;50.832;4.392;2022-08-23T12:18:37;6.32;;;1.77;;
33573;SDS011;20085;50.832;4.392;2022-08-23T12:21:04;7.43;;;1.48;;
33573;SDS011;20085;50.832;4.392;2022-08-23T12:23:54;2.13;;;1.00;;
33573;SDS011;20085;50.832;4.392;2022-08-23T12:26:25;3.13;;;1.20;;
33573;SDS011;20085;50.832;4.392;2022-08-23T12:29:04;5.40;;;2.05;;
33573;SDS011;20085;50.832;4.392;2022-08-23T12:39:36;3.40;;;1.48;;
33573;SDS011;20085;50.832;4.392;2022-08-23T12:42:18;5.75;;;1.60;;
33573;SDS011;20085;50.832;4.392;2022-08-23T12:45:17;6.75;;;1.90;;
33573;SDS011;20085;50.832;4.392;2022-08-23T12:47:53;4.28;;;1.70;;
33573;SDS011;20085;50.832;4.392;2022-08-23T12:50:26;6.72;;;1.40;;
33573;SDS011;20085;50.832;4.392;2022-08-23T12:52:59;2.97;;;1.20;;
33573;SDS011;20085;50.832;4.392;2022-08-23T12:55:30;6.43;;;1.25;;
33573;SDS011;20085;50.832;4.392;2022-08-23T12:57:58;5.53;;;1.10;;
33573;SDS011;20085;50.832;4.392;2022-08-23T13:03:10;8.98;;;1.45;;
33573;SDS011;20085;50.832;4.392;2022-08-23T13:05:45;2.67;;;1.10;;
33573;SDS011;20085;50.832;4.392;2022-08-23T13:08:15;5.50;;;1.30;;
33573;SDS011;20085;50.832;4.392;2022-08-23T13:10:44;7.97;;;1.40;;
33573;SDS011;20085;50.832;4.392;2022-08-23T13:13:12;5.43;;;1.17;;
33573;SDS011;20085;50.832;4.392;2022-08-23T13:18:06;3.80;;;1.17;;
33573;SDS011;20085;50.832;4.392;2022-08-23T13:20:31;1.98;;;1.10;;
33573;SDS011;20085;50.832;4.392;2022-08-23T13:23:05;5.20;;;1.65;;
33573;SDS011;20085;50.832;4.392;2022-08-23T13:25:37;5.43;;;1.40;;
33573;SDS011;20085;50.832;4.392;2022-08-23T13:28:07;6.97;;;1.20;;
33573;SDS011;20085;50.832;4.392;2022-08-23T13:30:59;3.85;;;1.23;;
33573;SDS011;20085;50.832;4.392;2022-08-23T13:33:31;8.40;;;1.30;;
33573;SDS011;20085;50.832;4.392;2022-08-23T13:36:16;4.50;;;1.55;;
33573;SDS011;20085;50.832;4.392;2022-08-23T13:38:45;6.55;;;1.30;;
33573;SDS011;20085;50.832;4.392;2022-08-23T13:41:25;5.45;;;1.40;;
33573;SDS011;20085;50.832;4.392;2022-08-23T13:43:55;5.53;;;1.98;;
33573;SDS011;20085;50.832;4.392;2022-08-23T13:53:52;2.92;;;1.23;;
33573;SDS011;20085;50.832;4.392;2022-08-23T13:56:19;7.03;;;1.90;;
33573;SDS011;20085;50.832;4.392;2022-08-23T13:58:58;3.00;;;1.35;;
33573;SDS011;20085;50.832;4.392;2022-08-23T14:01:26;5.88;;;1.75;;
33573;SDS011;20085;50.832;4.392;2022-08-23T14:03:53;3.63;;;1.60;;
33573;SDS011;20085;50.832;4.392;2022-08-23T14:06:19;4.38;;;1.70;;
33573;SDS011;20085;50.832;4.392;2022-08-23T14:08:44;6.55;;;1.67;;
33573;SDS011;20085;50.832;4.392;2022-08-23T14:11:10;6.07;;;1.30;;
33573;SDS011;20085;50.832;4.392;2022-08-23T14:13:40;8.30;;;1.80;;
33573;SDS011;20085;50.832;4.392;2022-08-23T14:16:13;4.78;;;1.70;;
33573;SDS011;20085;50.832;4.392;2022-08-23T14:18:49;3.80;;;1.30;;
33573;SDS011;20085;50.832;4.392;2022-08-23T14:21:15;5.25;;;1.40;;
33573;SDS011;20085;50.832;4.392;2022-08-23T14:23:40;3.63;;;1.42;;
33573;SDS011;20085;50.832;4.392;2022-08-23T14:26:06;5.93;;;1.50;;
33573;SDS011;20085;50.832;4.392;2022-08-23T14:28:33;7.95;;;1.70;;
33573;SDS011;20085;50.832;4.392;2022-08-23T14:30:59;5.25;;;1.60;;
33573;SDS011;20085;50.832;4.392;2022-08-23T14:33:24;3.78;;;1.27;;
33573;SDS011;20085;50.832;4.392;2022-08-23T14:35:50;3.65;;;1.60;;
33573;SDS011;20085;50.832;4.392;2022-08-23T14:38:16;5.05;;;1.50;;
33573;SDS011;20085;50.832;4.392;2022-08-23T14:43:37;4.28;;;1.40;;
33573;SDS011;20085;50.832;4.392;2022-08-23T14:46:03;3.35;;;1.45;;
33573;SDS011;20085;50.832;4.392;2022-08-23T14:48:29;4.57;;;1.50;;
33573;SDS011;20085;50.832;4.392;2022-08-23T14:50:55;3.15;;;1.50;;
33573;SDS011;20085;50.832;4.392;2022-08-23T14:53:22;3.17;;;1.30;;
33573;SDS011;20085;50.832;4.392;2022-08-23T14:55:50;5.18;;;1.40;;
33573;SDS011;20085;50.832;4.392;2022-08-23T14:58:18;4.13;;;1.48;;
33573;SDS011;20085;50.832;4.392;2022-08-23T15:00:44;5.53;;;1.25;;
33573;SDS011;20085;50.832;4.392;2022-08-23T15:03:10;4.35;;;1.40;;
33573;SDS011;20085;50.832;4.392;2022-08-23T15:05:40;4.10;;;1.65;;
33573;SDS011;20085;50.832;4.392;2022-08-23T15:08:06;7.20;;;1.60;;
33573;SDS011;20085;50.832;4.392;2022-08-23T15:10:31;4.82;;;1.65;;
33573;SDS011;20085;50.832;4.392;2022-08-23T15:12:57;5.45;;;1.30;;
33573;SDS011;20085;50.832;4.392;2022-08-23T15:15:23;2.70;;;1.40;;
33573;SDS011;20085;50.832;4.392;2022-08-23T15:17:49;3.20;;;1.48;;
33573;SDS011;20085;50.832;4.392;2022-08-23T15:20:21;4.65;;;1.90;;
33573;SDS011;20085;50.832;4.392;2022-08-23T15:22:49;6.28;;;1.70;;
33573;SDS011;20085;50.832;4.392;2022-08-23T15:25:14;3.72;;;1.50;;
33573;SDS011;20085;50.832;4.392;2022-08-23T15:27:42;4.28;;;1.83;;
33573;SDS011;20085;50.832;4.392;2022-08-23T15:30:11;3.63;;;1.60;;
33573;SDS011;20085;50.832;4.392;2022-08-23T15:32:38;2.70;;;1.25;;
33573;SDS011;20085;50.832;4.392;2022-08-23T15:35:04;6.80;;;1.60;;
33573;SDS011;20085;50.832;4.392;2022-08-23T15:37:30;6.28;;;2.00;;
33573;SDS011;20085;50.832;4.392;2022-08-23T15:39:57;2.85;;;1.27;;
33573;SDS011;20085;50.832;4.392;2022-08-23T15:42:23;6.13;;;1.63;;
33573;SDS011;20085;50.832;4.392;2022-08-23T15:44:49;4.78;;;1.60;;
33573;SDS011;20085;50.832;4.392;2022-08-23T15:47:34;4.25;;;1.65;;
33573;SDS011;20085;50.832;4.392;2022-08-23T15:50:12;5.80;;;1.60;;
33573;SDS011;20085;50.832;4.392;2022-08-23T15:52:38;3.30;;;1.55;;
33573;SDS011;20085;50.832;4.392;2022-08-23T15:55:04;5.95;;;1.50;;
33573;SDS011;20085;50.832;4.392;2022-08-23T15:57:31;3.45;;;1.73;;
33573;SDS011;20085;50.832;4.392;2022-08-23T16:00:04;6.63;;;1.80;;
33573;SDS011;20085;50.832;4.392;2022-08-23T16:02:31;3.28;;;1.70;;
33573;SDS011;20085;50.832;4.392;2022-08-23T16:04:57;4.32;;;1.90;;
33573;SDS011;20085;50.832;4.392;2022-08-23T16:07:23;3.60;;;1.70;;
33573;SDS011;20085;50.832;4.392;2022-08-23T16:09:48;3.70;;;1.60;;
33573;SDS011;20085;50.832;4.392;2022-08-23T16:12:14;4.68;;;1.52;;
33573;SDS011;20085;50.832;4.392;2022-08-23T16:14:39;3.72;;;1.70;;
33573;SDS011;20085;50.832;4.392;2022-08-23T16:17:06;5.32;;;1.80;;
33573;SDS011;20085;50.832;4.392;2022-08-23T16:19:32;2.95;;;1.75;;
33573;SDS011;20085;50.832;4.392;2022-08-23T16:21:58;6.97;;;1.83;;
33573;SDS011;20085;50.832;4.392;2022-08-23T16:24:24;3.60;;;1.80;;
33573;SDS011;20085;50.832;4.392;2022-08-23T16:26:51;3.90;;;1.80;;
33573;SDS011;20085;50.832;4.392;2022-08-23T16:29:18;4.35;;;2.40;;